sensor_id;sensor_type;location;lat;lon;timestamp;temperature;humidity
31991;DHT22;18508;49.386;8.370;2023-07-29T00:00:22;18.40;99.90
31991;DHT22;18508;49.386;8.370;2023-07-29T00:03:04;18.60;99.90
31991;DHT22;18508;49.386;8.370;2023-07-29T00:05:33;18.60;99.90
31991;DHT22;18508;49.386;8.370;2023-07-29T00:08:06;18.60;99.90
31991;DHT22;18508;49.386;8.370;2023-07-29T00:10:36;18.60;99.90
31991;DHT22;18508;49.386;8.370;2023-07-29T00:13:15;18.60;99.90
31991;DHT22;18508;49.386;8.370;2023-07-29T00:15:48;18.60;99.90
31991;DHT22;18508;49.386;8.370;2023-07-29T00:23:17;18.50;99.90
31991;DHT22;18508;49.386;8.370;2023-07-29T00:25:48;18.50;99.90
31991;DHT22;18508;49.386;8.370;2023-07-29T00:38:17;18.40;99.90
31991;DHT22;18508;49.386;8.370;2023-07-29T00:45:49;18.40;99.90
31991;DHT22;18508;49.386;8.370;2023-07-29T00:50:48;18.30;99.90
31991;DHT22;18508;49.386;8.370;2023-07-29T01:03:13;18.30;99.90
31991;DHT22;18508;49.386;8.370;2023-07-29T01:05:49;18.30;99.90
31991;DHT22;18508;49.386;8.370;2023-07-29T01:08:25;18.30;99.90
31991;DHT22;18508;49.386;8.370;2023-07-29T01:11:29;18.30;99.90
31991;DHT22;18508;49.386;8.370;2023-07-29T01:14:08;18.30;99.90
31991;DHT22;18508;49.386;8.370;2023-07-29T01:16:41;18.30;99.90
31991;DHT22;18508;49.386;8.370;2023-07-29T01:19:22;18.30;99.90
31991;DHT22;18508;49.386;8.370;2023-07-29T01:21:56;18.30;99.90
31991;DHT22;18508;49.386;8.370;2023-07-29T01:24:27;18.30;99.90
31991;DHT22;18508;49.386;8.370;2023-07-29T01:26:58;18.30;99.90
31991;DHT22;18508;49.386;8.370;2023-07-29T01:32:01;18.20;99.90
31991;DHT22;18508;49.386;8.370;2023-07-29T01:34:32;18.20;99.90
31991;DHT22;18508;49.386;8.370;2023-07-29T01:37:04;18.10;99.90
31991;DHT22;18508;49.386;8.370;2023-07-29T01:39:37;18.10;99.90
31991;DHT22;18508;49.386;8.370;2023-07-29T01:42:07;18.10;99.90
31991;DHT22;18508;49.386;8.370;2023-07-29T01:49:36;17.70;99.90
31991;DHT22;18508;49.386;8.370;2023-07-29T01:52:06;17.90;99.90
31991;DHT22;18508;49.386;8.370;2023-07-29T01:54:36;18.10;99.90
31991;DHT22;18508;49.386;8.370;2023-07-29T01:57:12;17.60;99.90
31991;DHT22;18508;49.386;8.370;2023-07-29T02:04:40;17.50;99.90
31991;DHT22;18508;49.386;8.370;2023-07-29T02:07:09;18.10;99.90
31991;DHT22;18508;49.386;8.370;2023-07-29T02:09:39;18.00;99.90
31991;DHT22;18508;49.386;8.370;2023-07-29T02:22:04;17.80;99.90
31991;DHT22;18508;49.386;8.370;2023-07-29T02:27:03;17.80;99.90
31991;DHT22;18508;49.386;8.370;2023-07-29T02:36:58;17.80;99.90
31991;DHT22;18508;49.386;8.370;2023-07-29T02:44:26;17.90;99.90
31991;DHT22;18508;49.386;8.370;2023-07-29T02:49:23;17.90;99.90
31991;DHT22;18508;49.386;8.370;2023-07-29T02:51:51;17.90;99.90
31991;DHT22;18508;49.386;8.370;2023-07-29T02:54:20;17.90;99.90
31991;DHT22;18508;49.386;8.370;2023-07-29T02:56:50;17.90;99.90
31991;DHT22;18508;49.386;8.370;2023-07-29T03:01:49;17.90;99.90
31991;DHT22;18508;49.386;8.370;2023-07-29T03:06:45;17.90;99.90
31991;DHT22;18508;49.386;8.370;2023-07-29T03:14:13;17.90;99.90
31991;DHT22;18508;49.386;8.370;2023-07-29T03:16:41;17.90;99.90
31991;DHT22;18508;49.386;8.370;2023-07-29T03:19:16;17.90;99.90
31991;DHT22;18508;49.386;8.370;2023-07-29T03:21:45;17.90;99.90
31991;DHT22;18508;49.386;8.370;2023-07-29T03:26:43;17.90;99.90
31991;DHT22;18508;49.386;8.370;2023-07-29T03:29:12;17.90;99.90
31991;DHT22;18508;49.386;8.370;2023-07-29T03:31:41;17.80;99.90
31991;DHT22;18508;49.386;8.370;2023-07-29T03:36:41;17.90;99.90
31991;DHT22;18508;49.386;8.370;2023-07-29T03:39:09;17.90;99.90
31991;DHT22;18508;49.386;8.370;2023-07-29T03:51:33;17.90;99.90
31991;DHT22;18508;49.386;8.370;2023-07-29T03:59:03;17.90;99.90
31991;DHT22;18508;49.386;8.370;2023-07-29T04:01:32;17.90;99.90
31991;DHT22;18508;49.386;8.370;2023-07-29T04:08:59;18.00;99.90
31991;DHT22;18508;49.386;8.370;2023-07-29T04:11:29;18.00;99.90
31991;DHT22;18508;49.386;8.370;2023-07-29T04:18:55;18.00;99.90
31991;DHT22;18508;49.386;8.370;2023-07-29T04:21:25;17.90;99.90
31991;DHT22;18508;49.386;8.370;2023-07-29T04:23:53;18.10;99.90
31991;DHT22;18508;49.386;8.370;2023-07-29T04:26:22;18.10;99.90
31991;DHT22;18508;49.386;8.370;2023-07-29T04:28:51;18.10;99.90
31991;DHT22;18508;49.386;8.370;2023-07-29T04:33:49;18.10;99.90
31991;DHT22;18508;49.386;8.370;2023-07-29T04:36:17;18.20;99.90
31991;DHT22;18508;49.386;8.370;2023-07-29T04:38:45;18.10;99.90
31991;DHT22;18508;49.386;8.370;2023-07-29T04:41:13;18.30;99.90
31991;DHT22;18508;49.386;8.370;2023-07-29T04:43:41;18.20;99.90
31991;DHT22;18508;49.386;8.370;2023-07-29T04:46:11;18.30;99.90
31991;DHT22;18508;49.386;8.370;2023-07-29T04:48:42;18.20;99.90
31991;DHT22;18508;49.386;8.370;2023-07-29T04:53:40;18.30;99.90
31991;DHT22;18508;49.386;8.370;2023-07-29T05:11:19;18.40;99.90
31991;DHT22;18508;49.386;8.370;2023-07-29T05:13:49;18.40;99.90
31991;DHT22;18508;49.386;8.370;2023-07-29T05:16:38;18.50;99.90
31991;DHT22;18508;49.386;8.370;2023-07-29T05:19:22;18.60;99.90
31991;DHT22;18508;49.386;8.370;2023-07-29T05:29:20;19.00;99.90
31991;DHT22;18508;49.386;8.370;2023-07-29T05:31:53;18.30;99.90
31991;DHT22;18508;49.386;8.370;2023-07-29T05:44:43;18.60;99.90
31991;DHT22;18508;49.386;8.370;2023-07-29T05:47:43;19.10;99.90
31991;DHT22;18508;49.386;8.370;2023-07-29T05:55:16;18.80;99.90
31991;DHT22;18508;49.386;8.370;2023-07-29T06:00:16;18.60;99.90
31991;DHT22;18508;49.386;8.370;2023-07-29T06:02:46;19.00;99.90
31991;DHT22;18508;49.386;8.370;2023-07-29T06:05:15;19.00;99.90
31991;DHT22;18508;49.386;8.370;2023-07-29T06:07:45;19.10;99.90
31991;DHT22;18508;49.386;8.370;2023-07-29T06:10:15;19.20;99.90
31991;DHT22;18508;49.386;8.370;2023-07-29T06:17:43;19.60;99.90
31991;DHT22;18508;49.386;8.370;2023-07-29T06:30:18;19.80;99.90
31991;DHT22;18508;49.386;8.370;2023-07-29T06:35:20;19.90;99.90
31991;DHT22;18508;49.386;8.370;2023-07-29T06:52:45;20.40;99.90
31991;DHT22;18508;49.386;8.370;2023-07-29T06:55:14;20.50;99.90
31991;DHT22;18508;49.386;8.370;2023-07-29T07:05:10;21.20;99.90
31991;DHT22;18508;49.386;8.370;2023-07-29T07:10:14;21.30;99.90
31991;DHT22;18508;49.386;8.370;2023-07-29T07:12:43;21.60;99.90
31991;DHT22;18508;49.386;8.370;2023-07-29T07:15:19;21.30;99.90
31991;DHT22;18508;49.386;8.370;2023-07-29T07:17:47;21.40;99.90
31991;DHT22;18508;49.386;8.370;2023-07-29T07:20:17;21.20;99.90
31991;DHT22;18508;49.386;8.370;2023-07-29T07:22:48;21.90;99.90
31991;DHT22;18508;49.386;8.370;2023-07-29T07:25:18;22.10;99.90
31991;DHT22;18508;49.386;8.370;2023-07-29T07:27:54;22.50;99.90
31991;DHT22;18508;49.386;8.370;2023-07-29T07:30:22;22.70;99.90
31991;DHT22;18508;49.386;8.370;2023-07-29T07:32:51;22.50;99.90
31991;DHT22;18508;49.386;8.370;2023-07-29T07:35:24;22.50;99.90
31991;DHT22;18508;49.386;8.370;2023-07-29T07:37:52;22.50;99.90
31991;DHT22;18508;49.386;8.370;2023-07-29T07:40:23;22.40;99.90
31991;DHT22;18508;49.386;8.370;2023-07-29T07:42:53;22.40;99.90
31991;DHT22;18508;49.386;8.370;2023-07-29T07:45:21;22.60;99.90
31991;DHT22;18508;49.386;8.370;2023-07-29T07:47:51;22.70;99.90
31991;DHT22;18508;49.386;8.370;2023-07-29T07:50:20;22.80;99.90
31991;DHT22;18508;49.386;8.370;2023-07-29T07:52:51;22.80;99.90
31991;DHT22;18508;49.386;8.370;2023-07-29T07:55:20;22.80;99.90
31991;DHT22;18508;49.386;8.370;2023-07-29T07:57:50;22.80;99.90
31991;DHT22;18508;49.386;8.370;2023-07-29T08:00:18;22.80;99.90
31991;DHT22;18508;49.386;8.370;2023-07-29T08:02:48;22.80;99.90
31991;DHT22;18508;49.386;8.370;2023-07-29T08:05:17;23.10;99.90
31991;DHT22;18508;49.386;8.370;2023-07-29T08:07:46;23.30;99.90
31991;DHT22;18508;49.386;8.370;2023-07-29T08:10:14;22.90;99.90
31991;DHT22;18508;49.386;8.370;2023-07-29T08:12:43;22.70;99.90
31991;DHT22;18508;49.386;8.370;2023-07-29T08:15:13;22.50;99.90
31991;DHT22;18508;49.386;8.370;2023-07-29T08:17:41;22.20;99.90
31991;DHT22;18508;49.386;8.370;2023-07-29T08:20:10;22.20;99.90
31991;DHT22;18508;49.386;8.370;2023-07-29T08:22:38;22.10;99.90
31991;DHT22;18508;49.386;8.370;2023-07-29T08:25:09;22.10;99.90
31991;DHT22;18508;49.386;8.370;2023-07-29T08:27:38;22.10;99.90
31991;DHT22;18508;49.386;8.370;2023-07-29T08:30:08;22.10;99.90
31991;DHT22;18508;49.386;8.370;2023-07-29T08:32:38;22.10;99.90
31991;DHT22;18508;49.386;8.370;2023-07-29T08:35:08;22.20;99.90
31991;DHT22;18508;49.386;8.370;2023-07-29T08:37:37;22.10;99.90
31991;DHT22;18508;49.386;8.370;2023-07-29T08:40:06;22.00;99.90
31991;DHT22;18508;49.386;8.370;2023-07-29T08:42:38;22.40;99.90
31991;DHT22;18508;49.386;8.370;2023-07-29T08:45:08;22.70;99.90
31991;DHT22;18508;49.386;8.370;2023-07-29T08:47:41;23.00;99.90
31991;DHT22;18508;49.386;8.370;2023-07-29T08:52:55;23.40;99.90
31991;DHT22;18508;49.386;8.370;2023-07-29T08:55:38;23.20;99.90
31991;DHT22;18508;49.386;8.370;2023-07-29T08:58:43;23.20;99.90
31991;DHT22;18508;49.386;8.370;2023-07-29T09:01:15;23.00;99.90
31991;DHT22;18508;49.386;8.370;2023-07-29T09:03:45;22.90;99.90
31991;DHT22;18508;49.386;8.370;2023-07-29T09:06:15;22.40;99.90
31991;DHT22;18508;49.386;8.370;2023-07-29T09:08:44;22.60;99.90
31991;DHT22;18508;49.386;8.370;2023-07-29T09:11:14;22.80;99.90
31991;DHT22;18508;49.386;8.370;2023-07-29T09:13:44;23.30;99.90
31991;DHT22;18508;49.386;8.370;2023-07-29T09:16:13;23.50;99.90
31991;DHT22;18508;49.386;8.370;2023-07-29T09:18:42;23.60;99.90
31991;DHT22;18508;49.386;8.370;2023-07-29T09:21:15;23.70;99.90
31991;DHT22;18508;49.386;8.370;2023-07-29T09:23:45;23.80;99.90
31991;DHT22;18508;49.386;8.370;2023-07-29T09:26:13;23.90;99.90
31991;DHT22;18508;49.386;8.370;2023-07-29T09:28:41;24.10;99.90
31991;DHT22;18508;49.386;8.370;2023-07-29T09:31:19;24.40;99.90
31991;DHT22;18508;49.386;8.370;2023-07-29T09:33:48;24.60;91.70
31991;DHT22;18508;49.386;8.370;2023-07-29T09:36:21;24.60;8.80
31991;DHT22;18508;49.386;8.370;2023-07-29T09:38:51;25.00;34.50
31991;DHT22;18508;49.386;8.370;2023-07-29T09:41:22;25.20;24.90
31991;DHT22;18508;49.386;8.370;2023-07-29T09:43:56;25.40;1.00
31991;DHT22;18508;49.386;8.370;2023-07-29T09:46:33;26.00;1.00
31991;DHT22;18508;49.386;8.370;2023-07-29T09:49:05;25.70;1.00
31991;DHT22;18508;49.386;8.370;2023-07-29T09:51:38;25.80;1.00
31991;DHT22;18508;49.386;8.370;2023-07-29T09:54:07;26.00;1.00
31991;DHT22;18508;49.386;8.370;2023-07-29T09:56:40;25.90;99.90
31991;DHT22;18508;49.386;8.370;2023-07-29T09:59:09;25.90;1.00
31991;DHT22;18508;49.386;8.370;2023-07-29T10:01:38;25.40;1.00
31991;DHT22;18508;49.386;8.370;2023-07-29T10:04:08;25.40;99.90
31991;DHT22;18508;49.386;8.370;2023-07-29T10:06:41;25.70;99.90
31991;DHT22;18508;49.386;8.370;2023-07-29T10:09:11;25.70;99.90
31991;DHT22;18508;49.386;8.370;2023-07-29T10:11:40;25.60;99.90
31991;DHT22;18508;49.386;8.370;2023-07-29T10:14:09;25.80;99.90
31991;DHT22;18508;49.386;8.370;2023-07-29T10:16:40;25.90;1.00
31991;DHT22;18508;49.386;8.370;2023-07-29T10:19:10;26.10;99.90
31991;DHT22;18508;49.386;8.370;2023-07-29T10:21:44;26.30;5.80
31991;DHT22;18508;49.386;8.370;2023-07-29T10:24:22;26.10;1.00
31991;DHT22;18508;49.386;8.370;2023-07-29T10:26:58;26.10;99.90
31991;DHT22;18508;49.386;8.370;2023-07-29T10:29:31;26.00;99.90
31991;DHT22;18508;49.386;8.370;2023-07-29T10:32:02;26.00;1.00
31991;DHT22;18508;49.386;8.370;2023-07-29T10:34:31;26.20;25.60
31991;DHT22;18508;49.386;8.370;2023-07-29T10:37:07;26.20;91.70
31991;DHT22;18508;49.386;8.370;2023-07-29T10:39:40;26.30;1.00
31991;DHT22;18508;49.386;8.370;2023-07-29T10:42:10;26.40;99.90
31991;DHT22;18508;49.386;8.370;2023-07-29T10:44:47;26.70;99.90
31991;DHT22;18508;49.386;8.370;2023-07-29T10:47:17;26.40;1.00
31991;DHT22;18508;49.386;8.370;2023-07-29T10:49:48;26.80;1.00
31991;DHT22;18508;49.386;8.370;2023-07-29T10:52:31;26.80;1.00
31991;DHT22;18508;49.386;8.370;2023-07-29T10:55:00;26.80;99.90
31991;DHT22;18508;49.386;8.370;2023-07-29T10:57:33;26.60;1.00
31991;DHT22;18508;49.386;8.370;2023-07-29T11:00:02;26.30;1.00
31991;DHT22;18508;49.386;8.370;2023-07-29T11:02:33;26.30;1.00
31991;DHT22;18508;49.386;8.370;2023-07-29T11:05:05;26.30;1.00
31991;DHT22;18508;49.386;8.370;2023-07-29T11:07:45;26.20;99.90
31991;DHT22;18508;49.386;8.370;2023-07-29T11:10:14;26.20;99.90
31991;DHT22;18508;49.386;8.370;2023-07-29T11:12:44;26.20;1.00
31991;DHT22;18508;49.386;8.370;2023-07-29T11:15:20;26.10;99.90
31991;DHT22;18508;49.386;8.370;2023-07-29T11:17:50;26.10;1.00
31991;DHT22;18508;49.386;8.370;2023-07-29T11:20:20;26.20;99.90
31991;DHT22;18508;49.386;8.370;2023-07-29T11:22:52;26.20;1.00
31991;DHT22;18508;49.386;8.370;2023-07-29T11:25:21;26.30;1.00
31991;DHT22;18508;49.386;8.370;2023-07-29T11:27:52;26.50;99.90
31991;DHT22;18508;49.386;8.370;2023-07-29T11:30:21;26.50;99.90
31991;DHT22;18508;49.386;8.370;2023-07-29T11:32:50;26.70;1.00
31991;DHT22;18508;49.386;8.370;2023-07-29T11:35:19;26.80;1.00
31991;DHT22;18508;49.386;8.370;2023-07-29T11:37:48;26.90;1.00
31991;DHT22;18508;49.386;8.370;2023-07-29T11:40:19;26.90;99.90
31991;DHT22;18508;49.386;8.370;2023-07-29T11:42:49;26.70;1.00
31991;DHT22;18508;49.386;8.370;2023-07-29T11:45:19;26.60;1.00
31991;DHT22;18508;49.386;8.370;2023-07-29T11:47:51;26.90;1.00
31991;DHT22;18508;49.386;8.370;2023-07-29T11:50:21;26.90;1.00
31991;DHT22;18508;49.386;8.370;2023-07-29T11:52:49;26.80;99.90
31991;DHT22;18508;49.386;8.370;2023-07-29T11:55:21;26.80;99.90
31991;DHT22;18508;49.386;8.370;2023-07-29T11:57:51;26.90;99.90
31991;DHT22;18508;49.386;8.370;2023-07-29T12:00:21;27.00;99.90
31991;DHT22;18508;49.386;8.370;2023-07-29T12:02:50;27.20;97.60
31991;DHT22;18508;49.386;8.370;2023-07-29T12:05:20;27.20;99.90
31991;DHT22;18508;49.386;8.370;2023-07-29T12:07:49;27.20;1.00
31991;DHT22;18508;49.386;8.370;2023-07-29T12:10:18;27.30;1.00
31991;DHT22;18508;49.386;8.370;2023-07-29T12:12:50;27.50;1.00
31991;DHT22;18508;49.386;8.370;2023-07-29T12:15:31;27.20;95.90
31991;DHT22;18508;49.386;8.370;2023-07-29T12:18:00;26.70;1.00
31991;DHT22;18508;49.386;8.370;2023-07-29T12:20:29;27.00;1.00
31991;DHT22;18508;49.386;8.370;2023-07-29T12:22:59;27.00;12.30
31991;DHT22;18508;49.386;8.370;2023-07-29T12:25:28;26.80;99.90
31991;DHT22;18508;49.386;8.370;2023-07-29T12:28:04;27.00;78.50
31991;DHT22;18508;49.386;8.370;2023-07-29T12:30:40;27.10;99.90
31991;DHT22;18508;49.386;8.370;2023-07-29T12:33:09;27.30;1.00
31991;DHT22;18508;49.386;8.370;2023-07-29T12:35:38;27.30;1.00
31991;DHT22;18508;49.386;8.370;2023-07-29T12:38:06;27.40;1.00
31991;DHT22;18508;49.386;8.370;2023-07-29T12:40:38;28.20;1.00
31991;DHT22;18508;49.386;8.370;2023-07-29T12:43:08;28.20;1.00
31991;DHT22;18508;49.386;8.370;2023-07-29T12:45:36;28.40;1.00
31991;DHT22;18508;49.386;8.370;2023-07-29T12:48:08;28.40;1.00
31991;DHT22;18508;49.386;8.370;2023-07-29T12:50:37;28.30;1.00
31991;DHT22;18508;49.386;8.370;2023-07-29T12:53:08;29.10;1.00
31991;DHT22;18508;49.386;8.370;2023-07-29T12:55:37;28.60;1.00
31991;DHT22;18508;49.386;8.370;2023-07-29T12:58:05;28.90;99.90
31991;DHT22;18508;49.386;8.370;2023-07-29T13:00:35;28.70;99.90
31991;DHT22;18508;49.386;8.370;2023-07-29T13:03:04;28.70;99.90
31991;DHT22;18508;49.386;8.370;2023-07-29T13:05:33;28.70;99.90
31991;DHT22;18508;49.386;8.370;2023-07-29T13:08:01;28.50;99.90
31991;DHT22;18508;49.386;8.370;2023-07-29T13:10:29;28.00;99.90
31991;DHT22;18508;49.386;8.370;2023-07-29T13:13:02;28.00;1.00
31991;DHT22;18508;49.386;8.370;2023-07-29T13:15:34;28.20;1.00
31991;DHT22;18508;49.386;8.370;2023-07-29T13:18:03;28.30;1.00
31991;DHT22;18508;49.386;8.370;2023-07-29T13:20:33;28.20;1.00
31991;DHT22;18508;49.386;8.370;2023-07-29T13:23:02;28.20;1.00
31991;DHT22;18508;49.386;8.370;2023-07-29T13:25:32;28.50;99.90
31991;DHT22;18508;49.386;8.370;2023-07-29T13:28:00;28.50;99.90
31991;DHT22;18508;49.386;8.370;2023-07-29T13:30:30;28.70;99.90
31991;DHT22;18508;49.386;8.370;2023-07-29T13:33:01;28.60;99.90
31991;DHT22;18508;49.386;8.370;2023-07-29T13:35:31;28.00;1.00
31991;DHT22;18508;49.386;8.370;2023-07-29T13:37:59;27.80;1.00
31991;DHT22;18508;49.386;8.370;2023-07-29T13:40:28;27.90;1.00
31991;DHT22;18508;49.386;8.370;2023-07-29T13:42:58;27.90;1.00
31991;DHT22;18508;49.386;8.370;2023-07-29T13:45:28;27.80;1.00
31991;DHT22;18508;49.386;8.370;2023-07-29T13:47:58;28.40;99.90
31991;DHT22;18508;49.386;8.370;2023-07-29T13:50:29;29.00;99.90
31991;DHT22;18508;49.386;8.370;2023-07-29T13:52:58;29.40;99.90
31991;DHT22;18508;49.386;8.370;2023-07-29T13:55:27;30.00;99.90
31991;DHT22;18508;49.386;8.370;2023-07-29T13:57:55;30.70;99.90
31991;DHT22;18508;49.386;8.370;2023-07-29T14:00:24;30.40;99.90
31991;DHT22;18508;49.386;8.370;2023-07-29T14:02:54;30.60;99.90
31991;DHT22;18508;49.386;8.370;2023-07-29T14:05:46;30.30;99.90
31991;DHT22;18508;49.386;8.370;2023-07-29T14:08:17;30.20;99.90
31991;DHT22;18508;49.386;8.370;2023-07-29T14:11:00;30.70;99.90
31991;DHT22;18508;49.386;8.370;2023-07-29T14:16:00;29.40;99.90
31991;DHT22;18508;49.386;8.370;2023-07-29T14:18:30;28.80;99.90
31991;DHT22;18508;49.386;8.370;2023-07-29T14:21:01;29.10;99.90
31991;DHT22;18508;49.386;8.370;2023-07-29T14:23:29;29.40;99.90
31991;DHT22;18508;49.386;8.370;2023-07-29T14:26:06;30.20;99.90
31991;DHT22;18508;49.386;8.370;2023-07-29T14:28:37;30.10;99.90
31991;DHT22;18508;49.386;8.370;2023-07-29T14:33:36;31.70;99.90
31991;DHT22;18508;49.386;8.370;2023-07-29T14:36:15;31.50;99.90
31991;DHT22;18508;49.386;8.370;2023-07-29T14:38:44;31.40;99.90
31991;DHT22;18508;49.386;8.370;2023-07-29T14:41:16;32.30;99.90
31991;DHT22;18508;49.386;8.370;2023-07-29T14:43:45;33.00;99.90
31991;DHT22;18508;49.386;8.370;2023-07-29T14:46:18;33.00;99.90
31991;DHT22;18508;49.386;8.370;2023-07-29T14:48:48;33.10;99.90
31991;DHT22;18508;49.386;8.370;2023-07-29T14:51:18;33.90;99.90
31991;DHT22;18508;49.386;8.370;2023-07-29T14:53:49;33.90;99.90
31991;DHT22;18508;49.386;8.370;2023-07-29T14:56:18;34.60;99.90
31991;DHT22;18508;49.386;8.370;2023-07-29T14:58:51;34.90;99.90
31991;DHT22;18508;49.386;8.370;2023-07-29T15:01:23;34.00;99.90
31991;DHT22;18508;49.386;8.370;2023-07-29T15:03:54;33.00;99.90
31991;DHT22;18508;49.386;8.370;2023-07-29T15:06:25;32.90;99.90
31991;DHT22;18508;49.386;8.370;2023-07-29T15:08:53;33.10;99.90
31991;DHT22;18508;49.386;8.370;2023-07-29T15:11:21;32.30;99.90
31991;DHT22;18508;49.386;8.370;2023-07-29T15:13:49;32.20;99.90
31991;DHT22;18508;49.386;8.370;2023-07-29T15:16:23;31.30;99.90
31991;DHT22;18508;49.386;8.370;2023-07-29T15:18:53;30.70;99.90
31991;DHT22;18508;49.386;8.370;2023-07-29T15:21:21;29.00;99.90
31991;DHT22;18508;49.386;8.370;2023-07-29T15:23:51;29.70;99.90
31991;DHT22;18508;49.386;8.370;2023-07-29T15:31:19;28.90;99.90
31991;DHT22;18508;49.386;8.370;2023-07-29T15:36:17;29.20;99.90
31991;DHT22;18508;49.386;8.370;2023-07-29T15:38:46;29.20;99.90
31991;DHT22;18508;49.386;8.370;2023-07-29T15:41:16;30.10;99.90
31991;DHT22;18508;49.386;8.370;2023-07-29T15:43:44;30.50;99.90
31991;DHT22;18508;49.386;8.370;2023-07-29T15:46:14;29.90;99.90
31991;DHT22;18508;49.386;8.370;2023-07-29T15:48:42;29.80;99.90
31991;DHT22;18508;49.386;8.370;2023-07-29T15:51:11;28.40;99.90
31991;DHT22;18508;49.386;8.370;2023-07-29T15:53:40;28.20;99.90
31991;DHT22;18508;49.386;8.370;2023-07-29T15:56:20;28.10;99.90
31991;DHT22;18508;49.386;8.370;2023-07-29T16:01:23;28.20;1.00
31991;DHT22;18508;49.386;8.370;2023-07-29T16:06:25;28.60;99.90
31991;DHT22;18508;49.386;8.370;2023-07-29T16:12:01;30.40;99.90
31991;DHT22;18508;49.386;8.370;2023-07-29T16:14:31;31.30;99.90
31991;DHT22;18508;49.386;8.370;2023-07-29T16:17:02;31.30;99.90
31991;DHT22;18508;49.386;8.370;2023-07-29T16:19:30;31.50;99.90
31991;DHT22;18508;49.386;8.370;2023-07-29T16:21:59;30.10;99.90
31991;DHT22;18508;49.386;8.370;2023-07-29T16:24:28;31.10;99.90
31991;DHT22;18508;49.386;8.370;2023-07-29T16:26:59;30.70;99.90
31991;DHT22;18508;49.386;8.370;2023-07-29T16:29:28;31.10;99.90
31991;DHT22;18508;49.386;8.370;2023-07-29T16:31:57;29.10;1.00
31991;DHT22;18508;49.386;8.370;2023-07-29T16:34:25;28.10;99.90
31991;DHT22;18508;49.386;8.370;2023-07-29T16:36:55;27.50;99.90
31991;DHT22;18508;49.386;8.370;2023-07-29T16:39:24;26.10;1.00
31991;DHT22;18508;49.386;8.370;2023-07-29T16:41:54;26.70;1.00
31991;DHT22;18508;49.386;8.370;2023-07-29T16:44:33;24.40;99.90
31991;DHT22;18508;49.386;8.370;2023-07-29T16:47:01;23.70;1.00
31991;DHT22;18508;49.386;8.370;2023-07-29T16:49:30;23.40;1.00
31991;DHT22;18508;49.386;8.370;2023-07-29T16:51:58;23.60;99.80
31991;DHT22;18508;49.386;8.370;2023-07-29T16:54:27;24.00;80.30
31991;DHT22;18508;49.386;8.370;2023-07-29T16:56:56;25.10;1.00
31991;DHT22;18508;49.386;8.370;2023-07-29T16:59:26;26.20;1.00
31991;DHT22;18508;49.386;8.370;2023-07-29T17:01:55;27.10;99.90
31991;DHT22;18508;49.386;8.370;2023-07-29T17:04:24;27.50;99.90
31991;DHT22;18508;49.386;8.370;2023-07-29T17:06:53;27.20;99.90
31991;DHT22;18508;49.386;8.370;2023-07-29T17:09:21;26.80;1.00
31991;DHT22;18508;49.386;8.370;2023-07-29T17:11:51;26.50;1.00
31991;DHT22;18508;49.386;8.370;2023-07-29T17:14:23;26.60;1.00
31991;DHT22;18508;49.386;8.370;2023-07-29T17:16:52;26.50;1.00
31991;DHT22;18508;49.386;8.370;2023-07-29T17:19:27;26.00;99.90
31991;DHT22;18508;49.386;8.370;2023-07-29T17:21:55;26.00;99.90
31991;DHT22;18508;49.386;8.370;2023-07-29T17:24:26;25.90;1.00
31991;DHT22;18508;49.386;8.370;2023-07-29T17:27:00;25.80;1.00
31991;DHT22;18508;49.386;8.370;2023-07-29T17:29:28;25.70;99.90
31991;DHT22;18508;49.386;8.370;2023-07-29T17:31:57;25.30;99.90
31991;DHT22;18508;49.386;8.370;2023-07-29T17:34:30;25.20;99.90
31991;DHT22;18508;49.386;8.370;2023-07-29T17:36:59;25.00;1.00
31991;DHT22;18508;49.386;8.370;2023-07-29T17:39:30;24.90;1.00
31991;DHT22;18508;49.386;8.370;2023-07-29T17:41:58;24.80;1.00
31991;DHT22;18508;49.386;8.370;2023-07-29T17:44:27;24.80;1.00
31991;DHT22;18508;49.386;8.370;2023-07-29T17:46:55;24.70;1.00
31991;DHT22;18508;49.386;8.370;2023-07-29T17:49:28;24.80;1.00
31991;DHT22;18508;49.386;8.370;2023-07-29T17:51:57;24.70;1.00
31991;DHT22;18508;49.386;8.370;2023-07-29T17:54:28;24.60;1.00
31991;DHT22;18508;49.386;8.370;2023-07-29T17:56:57;24.60;1.00
31991;DHT22;18508;49.386;8.370;2023-07-29T17:59:25;24.50;1.00
31991;DHT22;18508;49.386;8.370;2023-07-29T18:01:54;24.40;1.00
31991;DHT22;18508;49.386;8.370;2023-07-29T18:04:24;24.10;1.00
31991;DHT22;18508;49.386;8.370;2023-07-29T18:06:56;24.40;1.00
31991;DHT22;18508;49.386;8.370;2023-07-29T18:09:24;24.20;1.00
31991;DHT22;18508;49.386;8.370;2023-07-29T18:11:54;24.20;1.00
31991;DHT22;18508;49.386;8.370;2023-07-29T18:14:22;24.10;1.00
31991;DHT22;18508;49.386;8.370;2023-07-29T18:16:50;24.10;1.00
31991;DHT22;18508;49.386;8.370;2023-07-29T18:19:19;24.00;1.00
31991;DHT22;18508;49.386;8.370;2023-07-29T18:21:48;24.00;1.00
31991;DHT22;18508;49.386;8.370;2023-07-29T18:24:18;24.00;1.00
31991;DHT22;18508;49.386;8.370;2023-07-29T18:26:47;24.00;1.00
31991;DHT22;18508;49.386;8.370;2023-07-29T18:29:19;23.90;1.00
31991;DHT22;18508;49.386;8.370;2023-07-29T18:31:47;23.80;1.00
31991;DHT22;18508;49.386;8.370;2023-07-29T18:34:19;23.70;1.00
31991;DHT22;18508;49.386;8.370;2023-07-29T18:36:54;23.70;1.00
31991;DHT22;18508;49.386;8.370;2023-07-29T18:39:25;23.50;1.00
31991;DHT22;18508;49.386;8.370;2023-07-29T18:41:58;23.40;1.00
31991;DHT22;18508;49.386;8.370;2023-07-29T18:44:27;23.30;1.00
31991;DHT22;18508;49.386;8.370;2023-07-29T18:46:58;23.20;1.00
31991;DHT22;18508;49.386;8.370;2023-07-29T18:49:28;23.00;46.30
31991;DHT22;18508;49.386;8.370;2023-07-29T18:51:57;22.90;85.90
31991;DHT22;18508;49.386;8.370;2023-07-29T18:54:27;22.80;94.20
31991;DHT22;18508;49.386;8.370;2023-07-29T18:56:59;22.70;95.40
31991;DHT22;18508;49.386;8.370;2023-07-29T18:59:30;22.70;95.90
31991;DHT22;18508;49.386;8.370;2023-07-29T19:01:59;22.60;76.00
31991;DHT22;18508;49.386;8.370;2023-07-29T19:04:28;22.50;99.90
31991;DHT22;18508;49.386;8.370;2023-07-29T19:06:59;22.10;99.90
31991;DHT22;18508;49.386;8.370;2023-07-29T19:09:32;22.40;99.90
31991;DHT22;18508;49.386;8.370;2023-07-29T19:12:01;22.30;99.90
31991;DHT22;18508;49.386;8.370;2023-07-29T19:14:31;22.20;99.90
31991;DHT22;18508;49.386;8.370;2023-07-29T19:17:04;22.10;99.90
31991;DHT22;18508;49.386;8.370;2023-07-29T19:19:33;22.10;99.90
31991;DHT22;18508;49.386;8.370;2023-07-29T19:22:05;22.10;57.90
31991;DHT22;18508;49.386;8.370;2023-07-29T19:24:37;22.10;43.90
31991;DHT22;18508;49.386;8.370;2023-07-29T19:27:06;22.40;43.90
31991;DHT22;18508;49.386;8.370;2023-07-29T19:29:42;22.10;43.20
31991;DHT22;18508;49.386;8.370;2023-07-29T19:32:15;22.20;67.10
31991;DHT22;18508;49.386;8.370;2023-07-29T19:34:52;21.80;70.20
31991;DHT22;18508;49.386;8.370;2023-07-29T19:37:24;22.10;65.80
31991;DHT22;18508;49.386;8.370;2023-07-29T19:39:54;22.10;55.40